Impacts TAF Board INFO
FOR SITUATIONAL AWARENESS. NOT TO BE USED FOR FLIGHT PLANNING PURPOSES.
IDs:

KBFM - Mobile/Downtown Arpt, AL, US

Issued at 1720 UTC 19 Feb 2018
Updated at 2204 UTC 19 Feb 2018
Potential Impact None Slight Moderate High
Time<<20/11Z 20/12Z 20/13Z 20/14Z 20/15Z 20/16Z 20/17Z 20/18Z 20/19Z 20/20Z 20/21Z 20/22Z 20/23Z>>
Type PRVL
  [TEMP]  
PRVL
  [TEMP]  
PRVL PRVL PRVL PRVL PRVL
VIS 2
  [0.5]  
2
  [0.5]  
2 2 5 5 5
CIG 7
  [3]  
7
  [3]  
7 7 15 15 15
Cover OVC
  [OVX]  
OVC
  [OVX]  
OVC OVC OVC OVC OVC
FltCat IFR
  [LIFR]  
IFR
  [LIFR]  
IFR IFR MVFR MVFR MVFR
WX BR
  [FG]  
BR
  [FG]  
BR BR BR BR BR
WDir 110
[110]
110
[110]
110 110 120 120 120
WSpd 5
  [5]  
5
  [5]  
5 5 10 10 10
WGst --
  [--]  
--
  [--]  
-- -- -- -- --

Raw TAF
KBFM 191720Z 1918/2018 14009KT P6SM OVC060
  FM200100 12008KT P6SM BKN020
  FM200400 12005KT 3SM BR BKN008
  FM200800 11005KT 2SM BR OVC007
  TEMPO 2009/2013 1/2SM FG VV003
  FM201500 12010KT 5SM BR OVC015


METAR Board
Radar Display
Forecast Discussion

FOR SITUATIONAL AWARENESS. NOT TO BE USED FOR FLIGHT PLANNING PURPOSES.